Time;durP1;ratioP1;P1;durP2;ratioP2;P2;SDS_P1;SDS_P2;PMS_P1;PMS_P2;Temp;Humidity;BMP_temperature;BMP_pressure;BME280_temperature;BME280_humidity;BME280_pressure;Samples;Min_cycle;Max_cycle;Signal;HPM_P1;HPM_P2
2022/07/05 00:00:34;;;;;;;911.20;845.10;;;17.20;99.90;;;;;;5023240;28;20284;-75
2022/07/05 00:03:00;;;;;;;865.47;803.37;;;17.20;99.90;;;;;;5013487;28;20209;-70
2022/07/05 00:05:25;;;;;;;767.30;718.93;;;17.20;99.90;;;;;;5014761;28;20225;-70
2022/07/05 00:07:51;;;;;;;737.87;691.07;;;17.30;99.90;;;;;;5020294;28;20288;-64
2022/07/05 00:10:16;;;;;;;861.20;805.80;;;17.30;99.90;;;;;;5023595;28;20252;-65
2022/07/05 00:12:42;;;;;;;776.80;726.53;;;17.40;99.60;;;;;;5006071;28;20202;-67
2022/07/05 00:15:08;;;;;;;792.73;743.10;;;17.50;99.90;;;;;;5013997;28;20193;-66
2022/07/05 00:17:33;;;;;;;762.10;714.13;;;17.50;99.90;;;;;;5005077;28;20308;-66
2022/07/05 00:19:59;;;;;;;462.47;437.63;;;17.60;99.90;;;;;;5007251;28;20284;-65
2022/07/05 00:22:24;;;;;;;436.43;412.90;;;17.60;99.90;;;;;;5010098;28;20213;-66
2022/07/05 00:24:50;;;;;;;445.73;421.67;;;17.60;99.70;;;;;;5009229;28;20745;-66
2022/07/05 00:27:16;;;;;;;434.73;411.87;;;17.50;99.50;;;;;;5010116;28;20298;-66
2022/07/05 00:29:41;;;;;;;488.73;461.23;;;17.40;99.90;;;;;;5010717;28;20211;-68
2022/07/05 00:32:07;;;;;;;579.90;542.87;;;17.40;99.90;;;;;;5011118;28;20194;-67
2022/07/05 00:34:32;;;;;;;555.77;523.07;;;17.30;99.90;;;;;;5016947;28;20181;-67
2022/07/05 00:36:58;;;;;;;544.00;511.20;;;17.20;99.90;;;;;;5012471;28;20310;-67
2022/07/05 00:39:23;;;;;;;570.90;537.43;;;17.20;99.90;;;;;;5018924;28;20594;-65
2022/07/05 00:41:49;;;;;;;774.90;726.23;;;17.10;99.90;;;;;;5019223;28;20194;-64
2022/07/05 00:44:14;;;;;;;766.90;718.93;;;17.10;99.90;;;;;;5011972;28;20271;-65
2022/07/05 00:46:42;;;;;;;851.77;798.20;;;17.00;99.90;;;;;;5010537;28;20240;-65
2022/07/05 00:49:08;;;;;;;781.67;733.10;;;17.00;99.90;;;;;;5014713;28;20750;-66
2022/07/05 00:51:37;;;;;;;724.13;679.60;;;17.00;99.90;;;;;;5019637;28;20204;-67
2022/07/05 00:54:04;;;;;;;666.13;624.43;;;17.00;99.90;;;;;;5017348;28;20289;-66
2022/07/05 00:56:30;;;;;;;669.40;627.33;;;17.00;99.90;;;;;;5020417;28;20233;-68
2022/07/05 00:58:55;;;;;;;833.30;781.50;;;16.90;99.90;;;;;;5018633;28;20206;-67
2022/07/05 01:01:21;;;;;;;854.67;801.67;;;16.90;99.90;;;;;;5015125;28;20217;-68
2022/07/05 01:03:46;;;;;;;883.77;826.93;;;16.90;99.90;;;;;;5015323;28;20235;-62
2022/07/05 01:06:13;;;;;;;874.80;818.97;;;16.80;99.90;;;;;;5023574;28;20215;-65
2022/07/05 01:08:40;;;;;;;886.47;825.83;;;16.80;99.90;;;;;;5013127;28;20209;-65
2022/07/05 01:11:07;;;;;;;901.73;840.23;;;16.70;99.90;;;;;;5028070;28;20212;-64
2022/07/05 01:13:33;;;;;;;870.87;815.27;;;16.60;99.90;;;;;;5019378;28;20236;-66
2022/07/05 01:15:59;;;;;;;863.30;806.73;;;16.60;99.90;;;;;;5027514;28;20217;-65
2022/07/05 01:18:25;;;;;;;766.47;718.87;;;16.60;99.90;;;;;;5022247;28;20751;-67
2022/07/05 01:20:51;;;;;;;737.73;691.37;;;16.60;99.90;;;;;;5027647;28;20208;-66
2022/07/05 01:23:18;;;;;;;705.20;661.57;;;16.60;99.90;;;;;;5015844;28;20649;-67
2022/07/05 01:25:46;;;;;;;545.03;513.43;;;16.70;99.90;;;;;;5025820;28;20685;-67
2022/07/05 01:28:12;;;;;;;533.37;502.00;;;16.90;99.90;;;;;;5017865;28;20218;-65
2022/07/05 01:30:39;;;;;;;504.20;476.03;;;16.80;99.90;;;;;;5015802;28;20561;-66
2022/07/05 01:33:06;;;;;;;482.40;453.87;;;16.70;99.90;;;;;;5016801;28;20236;-65
2022/07/05 01:35:31;;;;;;;442.10;417.77;;;16.80;99.90;;;;;;5018991;28;20218;-66
2022/07/05 01:37:57;;;;;;;417.07;395.57;;;16.70;99.90;;;;;;5012381;28;20679;-66
2022/07/05 01:40:22;;;;;;;414.83;393.53;;;16.80;99.90;;;;;;5027176;28;20203;-66
2022/07/05 01:42:49;;;;;;;394.30;374.07;;;16.80;99.90;;;;;;5019308;28;20206;-66
2022/07/05 01:45:38;;;;;;;404.57;383.50;;;16.60;99.90;;;;;;5020087;28;20359;-63
2022/07/05 01:48:02;;;;;;;419.70;397.60;;;16.60;99.90;;;;;;5021035;28;20569;-69
2022/07/05 01:50:30;;;;;;;374.83;356.30;;;16.50;99.90;;;;;;5028196;28;20282;-63
2022/07/05 01:52:58;;;;;;;368.13;349.00;;;16.40;99.90;;;;;;5014241;28;20741;-65
2022/07/05 01:55:24;;;;;;;353.77;335.27;;;16.40;99.90;;;;;;5019137;28;20309;-66
2022/07/05 01:57:50;;;;;;;364.83;346.23;;;16.40;99.90;;;;;;5015453;28;20329;-64
2022/07/05 02:00:15;;;;;;;368.53;350.20;;;16.30;99.90;;;;;;5010411;28;20642;-65
2022/07/05 02:02:42;;;;;;;321.57;306.33;;;16.20;99.90;;;;;;5015661;28;20246;-65
2022/07/05 02:05:07;;;;;;;337.57;320.67;;;16.10;99.90;;;;;;5018076;28;20178;-65
2022/07/05 02:07:33;;;;;;;344.63;326.67;;;16.10;99.90;;;;;;5018466;28;20277;-66
2022/07/05 02:09:58;;;;;;;417.47;395.57;;;16.10;99.90;;;;;;5016427;28;20190;-66
2022/07/05 02:12:24;;;;;;;422.63;400.13;;;16.00;99.90;;;;;;5013996;28;20214;-66
2022/07/05 02:14:49;;;;;;;425.53;403.13;;;16.00;99.90;;;;;;5016186;28;20175;-70
2022/07/05 02:17:15;;;;;;;420.43;397.90;;;15.90;99.90;;;;;;5022682;28;20515;-70
2022/07/05 02:19:40;;;;;;;276.97;263.60;;;15.90;99.90;;;;;;5014121;28;20642;-75
2022/07/05 02:22:06;;;;;;;349.53;328.23;;;15.80;99.90;;;;;;5024307;28;20271;-69
2022/07/05 02:24:32;;;;;;;332.00;315.43;;;15.80;99.90;;;;;;5017783;28;20610;-72
2022/07/05 02:26:59;;;;;;;355.70;336.00;;;15.70;99.90;;;;;;5017343;28;20569;-79
2022/07/05 02:29:24;;;;;;;353.93;335.60;;;15.70;99.90;;;;;;5009156;28;20673;-73
2022/07/05 02:31:49;;;;;;;390.83;367.40;;;15.60;99.90;;;;;;5026257;28;20194;-74
2022/07/05 02:34:15;;;;;;;359.30;341.37;;;15.60;99.90;;;;;;5012236;28;20201;-70
2022/07/05 02:36:41;;;;;;;374.60;355.40;;;15.60;99.90;;;;;;5026734;28;20215;-72
2022/07/05 02:39:06;;;;;;;403.60;382.63;;;15.70;99.90;;;;;;5016794;28;20207;-66
2022/07/05 02:41:32;;;;;;;416.57;394.53;;;15.60;99.90;;;;;;5014202;28;20189;-66
2022/07/05 02:43:57;;;;;;;420.17;397.70;;;15.60;99.90;;;;;;5010654;28;20325;-65
2022/07/05 02:46:23;;;;;;;426.33;403.40;;;15.70;99.90;;;;;;5025733;28;20558;-65
2022/07/05 02:48:52;;;;;;;439.70;416.20;;;15.60;99.90;;;;;;5020501;28;20216;-65
2022/07/05 02:51:18;;;;;;;455.37;430.77;;;15.60;99.90;;;;;;5025965;28;20206;-67
2022/07/05 02:53:43;;;;;;;479.60;453.23;;;15.50;99.90;;;;;;5016914;28;20303;-67
2022/07/05 02:56:09;;;;;;;354.17;336.23;;;15.50;99.90;;;;;;5015536;28;20220;-66
2022/07/05 02:58:36;;;;;;;498.40;470.27;;;15.50;99.90;;;;;;5023729;28;20219;-66
2022/07/05 03:01:01;;;;;;;561.87;529.63;;;15.50;99.90;;;;;;5012194;28;20410;-67
2022/07/05 03:03:27;;;;;;;553.20;521.00;;;15.40;99.90;;;;;;5023148;28;20306;-66
2022/07/05 03:05:52;;;;;;;592.90;557.50;;;15.30;99.90;;;;;;5025383;28;20190;-65
2022/07/05 03:08:18;;;;;;;611.47;574.90;;;15.30;99.90;;;;;;5024354;28;20658;-65
2022/07/05 03:10:43;;;;;;;677.70;635.07;;;15.30;99.90;;;;;;5026001;28;20203;-65
2022/07/05 03:13:09;;;;;;;703.27;659.60;;;15.30;99.90;;;;;;5021863;28;20253;-66
2022/07/05 03:15:34;;;;;;;792.70;741.87;;;15.30;99.90;;;;;;5016209;28;20187;-68
2022/07/05 03:18:00;;;;;;;385.17;365.67;;;15.30;99.90;;;;;;5018485;28;20581;-67
2022/07/05 03:20:25;;;;;;;69.50;64.20;;;15.40;99.90;;;;;;5018655;28;20193;-68
2022/07/05 03:22:51;;;;;;;31.03;24.73;;;15.40;99.90;;;;;;5019617;28;20206;-69
2022/07/05 03:25:16;;;;;;;27.07;18.43;;;15.40;99.90;;;;;;5014491;28;20270;-66
2022/07/05 03:27:42;;;;;;;20.33;11.30;;;15.40;99.90;;;;;;5023162;28;20238;-66
2022/07/05 03:30:09;;;;;;;26.53;13.67;;;15.50;99.90;;;;;;5011689;28;20196;-65
2022/07/05 03:32:34;;;;;;;89.20;40.37;;;15.50;99.90;;;;;;5021408;28;20196;-65
2022/07/05 03:35:00;;;;;;;25.60;12.70;;;15.50;99.90;;;;;;5015229;28;20190;-65
2022/07/05 03:37:25;;;;;;;65.67;31.63;;;15.50;99.90;;;;;;5023138;28;20776;-65
2022/07/05 03:39:51;;;;;;;24.63;12.80;;;15.50;99.90;;;;;;5006247;28;20172;-65
2022/07/05 03:42:16;;;;;;;21.10;11.53;;;15.40;99.90;;;;;;5025115;28;20219;-66
2022/07/05 03:44:42;;;;;;;23.87;15.33;;;15.40;99.90;;;;;;5015145;28;20231;-66
2022/07/05 03:47:07;;;;;;;33.80;17.07;;;15.40;99.90;;;;;;5025435;28;20194;-66
2022/07/05 03:49:33;;;;;;;29.50;15.07;;;15.50;99.90;;;;;;5018287;28;20238;-65
2022/07/05 03:51:58;;;;;;;19.70;11.37;;;15.40;99.90;;;;;;5024987;28;20203;-67
2022/07/05 03:54:24;;;;;;;36.40;16.53;;;15.40;99.90;;;;;;5010842;28;20199;-66
2022/07/05 03:56:49;;;;;;;22.53;13.53;;;15.40;99.90;;;;;;5025223;28;20777;-67
2022/07/05 03:59:15;;;;;;;25.17;12.00;;;15.50;99.90;;;;;;5015458;28;20577;-67
2022/07/05 04:01:40;;;;;;;24.20;13.73;;;15.50;99.90;;;;;;5025009;28;20318;-66
2022/07/05 04:04:06;;;;;;;28.30;12.90;;;15.50;99.90;;;;;;5009446;28;20228;-66
2022/07/05 04:06:31;;;;;;;29.33;15.40;;;15.50;99.90;;;;;;5020092;28;20192;-64
2022/07/05 04:08:57;;;;;;;22.10;12.80;;;15.50;99.90;;;;;;5004130;28;20578;-65
2022/07/05 04:11:22;;;;;;;26.87;16.13;;;15.50;99.90;;;;;;5024386;28;20187;-66
2022/07/05 04:13:47;;;;;;;27.13;15.80;;;15.60;99.90;;;;;;5011872;28;20200;-66
2022/07/05 04:16:13;;;;;;;15.97;8.90;;;15.60;99.90;;;;;;5019788;28;20222;-64
2022/07/05 04:18:39;;;;;;;28.77;12.87;;;15.60;99.90;;;;;;5021055;28;20202;-64
2022/07/05 04:21:05;;;;;;;24.10;10.30;;;15.70;99.90;;;;;;5024563;28;20294;-64
2022/07/05 04:23:31;;;;;;;25.23;11.30;;;15.70;99.90;;;;;;5013698;28;20215;-65
2022/07/05 04:25:56;;;;;;;18.13;8.53;;;15.80;99.90;;;;;;5015619;28;20196;-65
2022/07/05 04:28:22;;;;;;;27.03;9.50;;;15.80;99.90;;;;;;5020364;28;20572;-65
2022/07/05 04:30:47;;;;;;;24.70;12.83;;;15.90;99.90;;;;;;5024539;28;20280;-65
2022/07/05 04:33:13;;;;;;;29.93;17.57;;;15.90;99.90;;;;;;5018624;28;20245;-64
2022/07/05 04:35:39;;;;;;;28.73;21.53;;;16.00;99.90;;;;;;5016670;28;20180;-64
2022/07/05 04:38:04;;;;;;;25.27;17.97;;;16.00;99.90;;;;;;5016986;28;20216;-65
2022/07/05 04:40:30;;;;;;;28.50;14.47;;;16.10;99.90;;;;;;5017390;28;20658;-65
2022/07/05 04:42:55;;;;;;;23.80;18.60;;;16.20;99.90;;;;;;5022295;28;20221;-64
2022/07/05 04:45:21;;;;;;;32.53;20.03;;;16.30;99.90;;;;;;5013429;28;20216;-64
2022/07/05 04:47:46;;;;;;;31.47;24.97;;;16.30;99.90;;;;;;5018865;28;20641;-64
2022/07/05 04:50:12;;;;;;;25.70;19.70;;;16.40;99.90;;;;;;5011995;28;20207;-64
2022/07/05 04:52:37;;;;;;;87.63;53.13;;;16.50;99.90;;;;;;5022465;28;20196;-64
2022/07/05 04:55:04;;;;;;;33.90;30.33;;;16.50;99.90;;;;;;5014677;28;20197;-64
2022/07/05 04:57:42;;;;;;;87.10;64.43;;;16.60;99.90;;;;;;5011035;28;20297;-65
2022/07/05 05:00:13;;;;;;;78.83;74.00;;;16.70;99.90;;;;;;5010341;28;20180;-65
2022/07/05 05:02:38;;;;;;;104.63;94.67;;;16.80;99.90;;;;;;5022444;28;20631;-65
2022/07/05 05:05:05;;;;;;;102.07;96.17;;;16.80;99.90;;;;;;5011405;28;20193;-65
2022/07/05 05:07:30;;;;;;;200.00;185.50;;;16.90;99.90;;;;;;5024216;28;20258;-66
2022/07/05 05:09:56;;;;;;;266.23;253.90;;;17.00;99.90;;;;;;5020735;28;20737;-65
2022/07/05 05:12:22;;;;;;;394.13;374.07;;;17.10;99.90;;;;;;5025790;28;20197;-66
2022/07/05 05:14:48;;;;;;;43.47;39.83;;;17.20;99.90;;;;;;5020181;28;20253;-66
2022/07/05 05:17:14;;;;;;;57.53;52.80;;;17.20;99.90;;;;;;5021600;28;20221;-66
2022/07/05 05:19:39;;;;;;;64.40;59.40;;;17.40;99.90;;;;;;5014106;28;20597;-65
2022/07/05 05:22:05;;;;;;;99.13;93.53;;;17.60;99.90;;;;;;5027958;28;20189;-67
2022/07/05 05:24:31;;;;;;;139.80;132.40;;;17.70;99.90;;;;;;5017238;28;20219;-66
2022/07/05 05:26:56;;;;;;;180.73;171.87;;;17.70;99.90;;;;;;5027445;28;20206;-66
2022/07/05 05:29:22;;;;;;;415.90;393.47;;;17.80;99.90;;;;;;5010526;28;20536;-66
2022/07/05 05:31:48;;;;;;;429.50;405.90;;;17.80;99.90;;;;;;5027744;28;20189;-65
2022/07/05 05:34:13;;;;;;;257.13;244.10;;;17.90;99.90;;;;;;5007166;28;20206;-65
2022/07/05 05:36:39;;;;;;;453.40;428.77;;;18.00;99.90;;;;;;5020421;28;20206;-66
2022/07/05 05:39:04;;;;;;;15.30;6.17;;;18.00;99.90;;;;;;5016791;28;20254;-66
2022/07/05 05:41:30;;;;;;;20.83;7.20;;;18.00;99.90;;;;;;5027439;28;20190;-66
2022/07/05 05:43:55;;;;;;;18.00;7.10;;;18.00;99.90;;;;;;5012885;28;20202;-65
2022/07/05 05:46:21;;;;;;;17.90;5.27;;;18.10;99.90;;;;;;5027364;28;20686;-66
2022/07/05 05:48:46;;;;;;;23.80;8.20;;;18.10;99.90;;;;;;5014200;28;20459;-65
2022/07/05 05:51:12;;;;;;;21.03;8.10;;;18.20;99.90;;;;;;5021967;28;20561;-65
2022/07/05 05:53:37;;;;;;;16.47;6.10;;;18.30;99.90;;;;;;5016015;28;20236;-66
2022/07/05 05:56:03;;;;;;;15.60;6.57;;;18.30;99.90;;;;;;5026473;28;20230;-66
2022/07/05 05:58:29;;;;;;;15.90;5.60;;;18.50;99.90;;;;;;5020208;28;20223;-66
2022/07/05 06:00:55;;;;;;;19.80;7.40;;;18.70;99.90;;;;;;5026602;28;20564;-66
2022/07/05 06:03:23;;;;;;;22.40;7.50;;;18.80;99.90;;;;;;5021604;28;20527;-66
2022/07/05 06:05:48;;;;;;;20.50;6.97;;;18.80;99.90;;;;;;5027005;28;20204;-66
2022/07/05 06:08:14;;;;;;;17.57;6.73;;;19.00;99.30;;;;;;5017666;28;20201;-66
2022/07/05 06:10:40;;;;;;;25.40;9.47;;;19.10;98.60;;;;;;5019416;28;20282;-66
2022/07/05 06:13:08;;;;;;;20.90;7.30;;;19.30;98.40;;;;;;5024271;28;20650;-66
2022/07/05 06:15:34;;;;;;;15.63;5.27;;;19.30;98.00;;;;;;5013721;28;20309;-66
2022/07/05 06:18:00;;;;;;;14.60;5.73;;;19.30;98.00;;;;;;5018560;28;20239;-66
2022/07/05 06:20:32;;;;;;;20.27;8.00;;;19.30;98.00;;;;;;5023589;28;20721;-66
2022/07/05 06:22:58;;;;;;;13.03;5.47;;;19.30;98.00;;;;;;5019303;28;20207;-66
2022/07/05 06:25:24;;;;;;;14.33;5.80;;;19.40;97.80;;;;;;5023803;28;20241;-67
2022/07/05 06:27:59;;;;;;;16.77;6.60;;;19.60;97.20;;;;;;5020784;28;20199;-66
2022/07/05 06:30:26;;;;;;;12.17;4.73;;;19.70;97.00;;;;;;5019310;28;20653;-66
2022/07/05 06:32:52;;;;;;;14.40;5.63;;;19.70;96.90;;;;;;5020546;28;20537;-66
2022/07/05 06:35:18;;;;;;;15.13;5.63;;;19.80;96.80;;;;;;5014593;28;20194;-67
2022/07/05 06:37:51;;;;;;;18.53;7.23;;;19.90;96.70;;;;;;5024342;28;20627;-66
2022/07/05 06:40:22;;;;;;;22.93;8.17;;;19.90;96.60;;;;;;5011369;28;20191;-66
2022/07/05 06:42:47;;;;;;;17.70;6.10;;;19.90;96.80;;;;;;5007964;28;20661;-66
2022/07/05 06:45:13;;;;;;;11.03;4.63;;;19.90;96.70;;;;;;5026806;28;20248;-66
2022/07/05 06:47:39;;;;;;;47.37;19.00;;;19.90;96.40;;;;;;5021515;28;20294;-66
2022/07/05 06:50:05;;;;;;;13.57;4.93;;;20.10;96.40;;;;;;5016354;28;20222;-65
2022/07/05 06:52:32;;;;;;;40.03;16.00;;;20.30;94.80;;;;;;5022885;28;20210;-66
2022/07/05 06:55:01;;;;;;;11.90;5.10;;;20.30;94.90;;;;;;5018815;28;20278;-65
2022/07/05 06:57:26;;;;;;;31.53;13.10;;;20.30;94.80;;;;;;5016272;28;20329;-65
2022/07/05 06:59:52;;;;;;;12.70;5.43;;;20.30;94.50;;;;;;5018690;28;20869;-65
2022/07/05 07:02:21;;;;;;;10.60;4.73;;;20.20;94.40;;;;;;5006932;28;20195;-67
2022/07/05 07:04:47;;;;;;;11.67;5.83;;;20.30;94.30;;;;;;5004418;28;20283;-66
2022/07/05 07:10:01;;;;;;;8.80;4.17;;;20.50;93.80;;;;;;5006624;28;20262;-68
2022/07/05 07:12:28;;;;;;;9.10;4.20;;;20.50;94.30;;;;;;5007129;28;20191;-65
2022/07/05 07:14:54;;;;;;;14.47;5.43;;;20.50;94.10;;;;;;5004976;28;20658;-65
2022/07/05 07:17:20;;;;;;;10.30;4.33;;;20.70;93.70;;;;;;5005260;28;20224;-66
2022/07/05 07:19:45;;;;;;;12.33;5.53;;;20.80;93.40;;;;;;5008119;28;20724;-65
2022/07/05 07:22:11;;;;;;;13.50;5.93;;;20.90;92.90;;;;;;5006690;28;20192;-66
2022/07/05 07:24:36;;;;;;;9.20;4.37;;;20.90;92.70;;;;;;5005077;28;20218;-66
2022/07/05 07:27:02;;;;;;;11.30;4.97;;;20.90;92.50;;;;;;5007857;28;20283;-64
2022/07/05 07:29:28;;;;;;;11.00;4.50;;;20.90;92.90;;;;;;5011426;28;20259;-65
2022/07/05 07:31:53;;;;;;;13.27;5.07;;;20.80;92.90;;;;;;5007024;28;20196;-66
2022/07/05 07:34:19;;;;;;;13.47;5.43;;;20.70;93.00;;;;;;5006151;28;20250;-66
2022/07/05 07:36:44;;;;;;;12.00;5.33;;;20.80;93.20;;;;;;5008603;28;20219;-66
2022/07/05 07:39:10;;;;;;;15.77;5.77;;;20.90;92.60;;;;;;5006334;28;20206;-66
2022/07/05 07:41:36;;;;;;;12.63;5.43;;;20.90;92.10;;;;;;5005994;28;20199;-65
2022/07/05 07:44:01;;;;;;;8.80;4.03;;;21.00;92.10;;;;;;5009280;28;20214;-67
2022/07/05 07:46:27;;;;;;;9.53;4.33;;;21.00;91.90;;;;;;5005912;28;20271;-65
2022/07/05 07:48:53;;;;;;;10.23;4.67;;;21.10;91.60;;;;;;5009065;28;20200;-65
2022/07/05 07:51:21;;;;;;;10.93;4.13;;;21.20;91.70;;;;;;5006254;28;20202;-65
2022/07/05 07:53:46;;;;;;;9.53;4.57;;;21.10;91.70;;;;;;5007348;28;20211;-66
2022/07/05 07:56:12;;;;;;;15.20;6.17;;;21.20;91.60;;;;;;5006642;28;20322;-66
2022/07/05 07:58:38;;;;;;;9.13;4.10;;;21.30;91.20;;;;;;5005989;28;20252;-65
2022/07/05 08:01:05;;;;;;;11.03;4.87;;;21.30;91.10;;;;;;5005211;28;20199;-67
2022/07/05 08:03:31;;;;;;;27.30;9.27;;;21.40;91.10;;;;;;5007910;28;20608;-66
2022/07/05 08:05:57;;;;;;;11.30;4.83;;;21.40;91.20;;;;;;5004924;28;20245;-65
2022/07/05 08:08:22;;;;;;;28.73;11.97;;;21.50;90.70;;;;;;5003810;28;20180;-66
2022/07/05 08:10:48;;;;;;;11.17;4.57;;;21.50;90.70;;;;;;5005349;28;20178;-66
2022/07/05 08:13:13;;;;;;;21.57;8.63;;;21.70;90.10;;;;;;5004552;28;20632;-64
2022/07/05 08:15:39;;;;;;;8.83;4.57;;;21.70;90.30;;;;;;5005258;28;20275;-65
2022/07/05 08:23:32;;;;;;;13.70;5.07;;;22.00;89.80;;;;;;5011219;28;20206;-65
2022/07/05 08:25:58;;;;;;;11.03;4.33;;;22.00;89.10;;;;;;5006062;28;20177;-66
2022/07/05 08:28:25;;;;;;;34.17;14.30;;;22.10;88.90;;;;;;5004309;28;20192;-66
2022/07/05 08:30:51;;;;;;;10.85;5.30;;;22.10;89.00;;;;;;5007409;28;20538;-66
2022/07/05 08:33:16;;;;;;;27.97;12.37;;;22.20;87.10;;;;;;5006032;28;20196;-65
2022/07/05 08:35:42;;;;;;;8.05;3.17;;;22.10;86.70;;;;;;5007069;28;20255;-66
2022/07/05 08:38:07;;;;;;;11.50;4.83;;;22.10;86.90;;;;;;5008879;28;20295;-65
2022/07/05 08:40:38;;;;;;;10.40;4.43;;;22.20;85.30;;;;;;5006092;28;20248;-64
2022/07/05 08:43:06;;;;;;;11.97;5.13;;;22.20;86.70;;;;;;5011307;28;20196;-67
2022/07/05 08:45:32;;;;;;;14.60;6.53;;;22.40;86.10;;;;;;5016675;28;20670;-68
2022/07/05 08:47:59;;;;;;;10.77;4.43;;;22.50;84.90;;;;;;5028557;28;20662;-70
2022/07/05 08:50:26;;;;;;;11.20;5.53;;;22.40;82.90;;;;;;5013068;28;21028;-69
2022/07/05 08:52:53;;;;;;;11.82;4.75;;;22.30;83.60;;;;;;5028572;28;20654;-69
2022/07/05 08:55:18;;;;;;;7.67;3.67;;;22.00;83.40;;;;;;5026017;28;20728;-75
2022/07/05 08:57:44;;;;;;;8.37;4.47;;;22.20;85.20;;;;;;5029255;28;20215;-71
2022/07/05 09:00:10;;;;;;;10.93;4.83;;;22.40;84.80;;;;;;5007073;28;20276;-67
2022/07/05 09:02:36;;;;;;;13.03;5.87;;;22.50;85.00;;;;;;5011256;28;20764;-67
2022/07/05 09:05:02;;;;;;;16.67;6.18;;;22.60;83.30;;;;;;5009635;28;20279;-66
2022/07/05 09:07:32;;;;;;;6.63;3.73;;;22.40;83.90;;;;;;5027757;28;20207;-66
2022/07/05 09:10:01;;;;;;;7.17;3.70;;;22.30;83.20;;;;;;5009583;28;20786;-66
2022/07/05 09:12:26;;;;;;;10.80;4.70;;;22.30;83.50;;;;;;5028473;28;20313;-66
2022/07/05 09:14:54;;;;;;;8.17;4.13;;;22.50;83.90;;;;;;5013124;28;20341;-67
2022/07/05 09:17:19;;;;;;;10.67;4.40;;;22.60;84.70;;;;;;5027532;28;20253;-65
2022/07/05 09:20:06;;;;;;;7.77;3.97;;;22.60;84.40;;;;;;5012773;28;20626;-66
2022/07/05 09:22:42;;;;;;;8.93;4.77;;;22.80;84.00;;;;;;5006562;28;20581;-66
2022/07/05 09:25:15;;;;;;;9.33;4.57;;;22.70;84.00;;;;;;5008990;28;20204;-65
2022/07/05 09:27:55;;;;;;;10.23;3.93;;;22.80;83.20;;;;;;5007851;28;20204;-66
2022/07/05 09:30:41;;;;;;;7.88;4.18;;;22.90;82.40;;;;;;5007899;28;20592;-67
2022/07/05 09:33:14;;;;;;;9.47;4.90;;;23.00;82.40;;;;;;5010332;28;20271;-65
2022/07/05 09:35:42;;;;;;;9.82;4.75;;;23.10;83.50;;;;;;5019557;28;20235;-74
2022/07/05 09:38:20;;;;;;;9.83;4.23;;;23.10;82.50;;;;;;5021403;28;20216;-75
2022/07/05 09:40:47;;;;;;;6.73;3.37;;;23.10;81.30;;;;;;5025459;28;20183;-75
2022/07/05 09:43:23;;;;;;;13.77;6.25;;;23.20;81.80;;;;;;5023861;28;20623;-74
2022/07/05 09:46:00;;;;;;;14.50;4.82;;;23.00;80.30;;;;;;5020731;28;20237;-74
2022/07/05 09:48:27;;;;;;;26.92;12.48;;;23.10;81.50;;;;;;5009547;28;20261;-74
2022/07/05 09:51:04;;;;;;;9.25;4.07;;;23.30;81.60;;;;;;5020314;28;20183;-74
2022/07/05 09:53:50;;;;;;;25.15;9.57;;;23.00;80.40;;;;;;5018198;28;20180;-76
2022/07/05 09:56:17;;;;;;;11.80;5.23;;;22.90;79.50;;;;;;5022665;28;20219;-81
2022/07/05 09:58:43;;;;;;;11.93;5.53;;;23.00;80.80;;;;;;5007693;28;20246;-77
2022/07/05 10:01:31;;;;;;;11.43;5.87;;;23.10;79.90;;;;;;5018395;28;20192;-80
2022/07/05 10:04:02;;;;;;;11.07;5.18;;;23.20;80.50;;;;;;5020122;28;20561;-80
2022/07/05 10:06:28;;;;;;;9.53;4.87;;;23.30;79.70;;;;;;5009634;28;20180;-85
2022/07/05 10:08:54;;;;;;;8.40;4.43;;;23.20;80.20;;;;;;5027220;28;20326;-81
2022/07/05 10:11:21;;;;;;;9.23;4.60;;;23.30;78.80;;;;;;5028542;28;20282;-84
2022/07/05 10:13:51;;;;;;;12.43;5.43;;;23.50;78.80;;;;;;5025820;28;20562;-83
2022/07/05 10:16:18;;;;;;;12.63;4.87;;;23.20;78.20;;;;;;5020104;28;20278;-86
2022/07/05 10:18:46;;;;;;;11.77;4.22;;;23.50;78.50;;;;;;5027613;28;20238;-86
2022/07/05 10:21:15;;;;;;;11.50;5.38;;;23.80;78.00;;;;;;5010925;28;20729;-74
2022/07/05 10:23:53;;;;;;;10.35;5.55;;;24.20;76.40;;;;;;5024704;28;20188;-73
2022/07/05 10:26:19;;;;;;;9.73;4.75;;;24.20;76.00;;;;;;5023603;28;20191;-72
2022/07/05 10:28:48;;;;;;;9.40;4.78;;;24.30;75.70;;;;;;5023982;28;20330;-72
2022/07/05 10:31:17;;;;;;;11.40;4.60;;;24.40;75.80;;;;;;5018362;28;20191;-72
2022/07/05 10:33:43;;;;;;;12.00;5.65;;;24.40;73.90;;;;;;5020284;28;20193;-70
2022/07/05 10:36:13;;;;;;;11.10;5.25;;;24.60;72.80;;;;;;5020984;28;20183;-80
2022/07/05 10:38:42;;;;;;;9.00;4.43;;;25.00;73.10;;;;;;5020971;28;20286;-65
2022/07/05 10:41:10;;;;;;;8.82;4.22;;;25.30;70.70;;;;;;5016907;28;20187;-65
2022/07/05 10:43:36;;;;;;;12.85;5.63;;;25.30;68.60;;;;;;5022386;28;20366;-65
2022/07/05 10:46:06;;;;;;;11.20;4.97;;;25.00;69.00;;;;;;5017594;28;20264;-74
2022/07/05 10:48:32;;;;;;;8.85;4.35;;;24.80;69.30;;;;;;5015066;28;20279;-77
2022/07/05 10:50:58;;;;;;;9.27;3.88;;;24.70;69.70;;;;;;5007928;28;20181;-78
2022/07/05 10:53:25;;;;;;;31.10;13.52;;;24.50;70.20;;;;;;5005863;28;20232;-73
2022/07/05 10:55:59;;;;;;;13.25;6.05;;;24.40;70.70;;;;;;5007240;28;20235;-74
2022/07/05 10:58:38;;;;;;;27.13;12.60;;;24.20;70.60;;;;;;5013872;28;20214;-75
2022/07/05 11:01:15;;;;;;;9.32;4.07;;;24.20;70.70;;;;;;5016888;28;20672;-74
2022/07/05 11:03:45;;;;;;;7.28;4.00;;;24.80;70.70;;;;;;5019290;28;20197;-74
2022/07/05 11:06:20;;;;;;;10.57;4.25;;;25.10;68.90;;;;;;5009333;28;20187;-73
2022/07/05 11:09:02;;;;;;;9.27;3.85;;;24.80;69.40;;;;;;5009160;28;20202;-74
2022/07/05 11:11:33;;;;;;;13.30;4.63;;;24.50;69.90;;;;;;5023219;28;20262;-78
2022/07/05 11:14:00;;;;;;;7.50;3.92;;;24.40;69.80;;;;;;5017614;28;20224;-80
2022/07/05 11:16:31;;;;;;;12.50;5.20;;;24.50;69.30;;;;;;5011018;28;20207;-75
2022/07/05 11:19:09;;;;;;;9.82;4.28;;;24.50;69.10;;;;;;5014865;28;20617;-75
2022/07/05 11:21:40;;;;;;;32.25;13.02;;;24.70;68.90;;;;;;5023429;28;20576;-75
2022/07/05 11:24:19;;;;;;;10.45;4.65;;;25.80;67.10;;;;;;5022929;28;20630;-75
2022/07/05 11:26:45;;;;;;;8.32;4.35;;;27.30;64.90;;;;;;5022975;28;20248;-75
2022/07/05 11:29:42;;;;;;;12.60;5.32;;;28.40;60.60;;;;;;5015058;28;20200;-75
2022/07/05 11:32:11;;;;;;;9.55;4.22;;;29.50;58.40;;;;;;5024304;28;20197;-75
2022/07/05 11:34:37;;;;;;;9.55;4.53;;;30.40;54.30;;;;;;5012345;28;20219;-74
2022/07/05 11:37:32;;;;;;;12.73;5.32;;;31.80;53.20;;;;;;5023668;28;20211;-75
2022/07/05 11:40:14;;;;;;;9.27;4.40;;;32.90;48.00;;;;;;4999782;28;20250;-75
2022/07/05 11:42:46;;;;;;;16.75;5.50;;;34.00;45.60;;;;;;5025509;28;20275;-75
2022/07/05 11:45:12;;;;;;;16.38;6.03;;;32.40;44.40;;;;;;5017402;28;20231;-74
2022/07/05 11:47:38;;;;;;;15.15;6.10;;;31.80;45.80;;;;;;5025331;28;20283;-74
2022/07/05 11:50:04;;;;;;;19.38;7.95;;;31.40;45.50;;;;;;5009535;28;20274;-75
2022/07/05 11:52:35;;;;;;;18.70;7.78;;;29.90;46.30;;;;;;5026541;28;20199;-75
2022/07/05 11:55:05;;;;;;;14.35;6.18;;;28.00;48.80;;;;;;5010435;28;20204;-74
2022/07/05 11:57:31;;;;;;;19.77;7.70;;;27.00;50.40;;;;;;5026754;28;20213;-75
2022/07/05 11:59:57;;;;;;;16.75;7.53;;;26.70;52.60;;;;;;5019623;28;20203;-73
2022/07/05 12:02:22;;;;;;;16.05;6.20;;;27.10;51.80;;;;;;5025661;28;20209;-74
2022/07/05 12:04:50;;;;;;;15.13;6.45;;;28.00;50.80;;;;;;5007822;28;20202;-75
2022/07/05 12:07:29;;;;;;;16.83;6.70;;;28.70;49.80;;;;;;5025014;28;20260;-75
2022/07/05 12:12:43;;;;;;;88.82;83.72;;;30.80;47.20;;;;;;5021330;28;20683;-76
2022/07/05 12:15:10;;;;;;;22.85;17.17;;;33.00;43.70;;;;;;5022664;28;20203;-73
2022/07/05 12:17:37;;;;;;;21.27;11.88;;;33.80;41.90;;;;;;5028960;28;20239;-74
2022/07/05 12:20:04;;;;;;;15.48;6.20;;;33.60;41.10;;;;;;5021023;28;20196;-73
2022/07/05 12:22:39;;;;;;;19.33;7.05;;;32.60;42.20;;;;;;5029566;28;20183;-75
2022/07/05 12:25:06;;;;;;;20.13;8.60;;;30.80;42.30;;;;;;5022743;28;20191;-74
2022/07/05 12:27:35;;;;;;;21.75;11.52;;;30.70;44.20;;;;;;5029165;28;20196;-75
2022/07/05 12:30:02;;;;;;;19.60;9.60;;;32.60;42.30;;;;;;5027649;28;20677;-74
2022/07/05 12:32:29;;;;;;;21.70;13.10;;;33.20;40.80;;;;;;5029574;28;20741;-75
2022/07/05 12:34:56;;;;;;;26.58;12.13;;;32.40;41.90;;;;;;5022444;28;20294;-75
2022/07/05 12:37:26;;;;;;;20.05;15.05;;;33.70;41.10;;;;;;5028298;28;20217;-75
2022/07/05 12:40:06;;;;;;;7.28;3.75;;;33.90;39.10;;;;;;5027604;28;20203;-74